Time;durP1;ratioP1;P1;durP2;ratioP2;P2;SDS_P1;SDS_P2;PMS_P1;PMS_P2;Temp;Humidity;BMP_temperature;BMP_pressure;BME280_temperature;BME280_humidity;BME280_pressure;Samples;Min_cycle;Max_cycle;Signal;HPM_P1;HPM_P2
2022/08/28 00:00:38;;;;;;;18.98;3.03;;;;;;;16.45;100.00;101511.31;5061090;28;20032;-77
2022/08/28 00:03:04;;;;;;;8.85;2.08;;;;;;;16.44;100.00;101512.31;5060807;28;20055;-77
2022/08/28 00:05:32;;;;;;;10.80;2.72;;;;;;;16.31;100.00;101518.13;5060178;28;20040;-77
2022/08/28 00:07:59;;;;;;;7.78;2.22;;;;;;;16.28;100.00;101523.94;5051419;28;20029;-77
2022/08/28 00:10:27;;;;;;;12.10;2.60;;;;;;;16.21;100.00;101522.75;5064240;28;20081;-77
2022/08/28 00:12:58;;;;;;;14.10;2.75;;;;;;;16.17;100.00;101529.59;5057207;28;20094;-78
2022/08/28 00:15:29;;;;;;;11.82;2.67;;;;;;;16.13;100.00;101523.47;5057022;28;20476;-77
2022/08/28 00:17:59;;;;;;;13.40;3.28;;;;;;;16.09;100.00;101518.38;5056328;28;20376;-77
2022/08/28 00:20:30;;;;;;;9.25;2.50;;;;;;;16.03;100.00;101521.69;5061693;28;20131;-78
2022/08/28 00:22:59;;;;;;;11.80;2.95;;;;;;;15.96;100.00;101519.50;5071254;28;20032;-77
2022/08/28 00:25:26;;;;;;;15.23;3.13;;;;;;;15.88;100.00;101522.06;5060256;28;20025;-78
2022/08/28 00:27:56;;;;;;;11.90;2.85;;;;;;;15.90;100.00;101522.81;5064291;28;20040;-77
2022/08/28 00:30:35;;;;;;;13.05;3.20;;;;;;;15.86;100.00;101512.22;5042075;28;20048;-77
2022/08/28 00:33:11;;;;;;;15.10;3.38;;;;;;;15.83;100.00;101538.19;5058068;28;20028;-77
2022/08/28 00:35:39;;;;;;;9.05;3.08;;;;;;;15.82;100.00;101525.38;5080853;28;20123;-78
2022/08/28 00:38:09;;;;;;;17.92;3.33;;;;;;;15.85;100.00;101533.41;5054987;28;20388;-78
2022/08/28 00:40:40;;;;;;;10.45;3.70;;;;;;;15.83;100.00;101532.66;5035148;28;20029;-77
2022/08/28 00:43:10;;;;;;;10.82;3.33;;;;;;;15.88;100.00;101533.13;5054685;28;20565;-77
2022/08/28 00:45:39;;;;;;;11.90;3.27;;;;;;;15.79;100.00;101531.22;5058641;28;20472;-77
2022/08/28 00:48:08;;;;;;;15.35;4.07;;;;;;;15.70;100.00;101534.78;5054378;28;20540;-77
2022/08/28 00:53:28;;;;;;;11.02;3.47;;;;;;;15.76;100.00;101534.25;5071584;28;20079;-77
2022/08/28 00:55:53;;;;;;;15.93;3.85;;;;;;;15.79;100.00;101539.50;5069500;28;20552;-77
2022/08/28 00:58:22;;;;;;;10.05;3.47;;;;;;;15.66;100.00;101539.69;5056099;28;20522;-77
2022/08/28 01:00:50;;;;;;;15.35;3.88;;;;;;;15.63;100.00;101540.84;5062938;28;20423;-78
2022/08/28 01:03:16;;;;;;;12.25;4.13;;;;;;;15.56;100.00;101534.13;5048262;28;21910;-78
2022/08/28 01:05:45;;;;;;;14.10;3.45;;;;;;;15.57;100.00;101540.50;5062385;28;20052;-77
2022/08/28 01:08:11;;;;;;;12.40;3.72;;;;;;;15.51;100.00;101538.28;5057562;28;20039;-77
2022/08/28 01:10:45;;;;;;;10.90;4.00;;;;;;;15.56;100.00;101545.16;5068035;28;20028;-78
2022/08/28 01:13:12;;;;;;;14.88;4.03;;;;;;;15.48;100.00;101536.69;5060304;28;20108;-78
2022/08/28 01:15:44;;;;;;;15.90;4.20;;;;;;;15.33;100.00;101547.22;5067421;28;20024;-77
2022/08/28 01:18:14;;;;;;;14.02;4.18;;;;;;;15.41;100.00;101546.50;5043168;28;20048;-77
2022/08/28 01:20:54;;;;;;;14.00;4.47;;;;;;;15.39;100.00;101552.16;5073612;28;20094;-76
2022/08/28 01:23:37;;;;;;;15.70;4.15;;;;;;;15.35;100.00;101552.59;5076696;28;20036;-77
2022/08/28 01:26:02;;;;;;;20.17;4.57;;;;;;;15.34;100.00;101559.13;5050997;28;20167;-77
2022/08/28 01:28:36;;;;;;;17.38;4.57;;;;;;;15.36;100.00;101557.97;5043747;28;20028;-78
2022/08/28 01:31:02;;;;;;;17.25;4.75;;;;;;;15.31;100.00;101553.88;5075941;28;20036;-76
2022/08/28 01:33:30;;;;;;;23.60;5.15;;;;;;;15.22;100.00;101559.19;5041437;28;20041;-80
2022/08/28 01:36:04;;;;;;;12.48;4.60;;;;;;;15.21;100.00;101557.41;5073411;28;20045;-77
2022/08/28 01:38:29;;;;;;;15.25;4.82;;;;;;;15.22;100.00;101561.94;5076478;28;20090;-78
2022/08/28 01:40:56;;;;;;;15.75;4.72;;;;;;;15.21;100.00;101557.41;5064551;28;20101;-77
2022/08/28 01:43:26;;;;;;;19.10;4.97;;;;;;;15.25;100.00;101558.91;5078003;28;20032;-77
2022/08/28 01:46:00;;;;;;;18.83;5.10;;;;;;;15.19;100.00;101553.94;5071294;28;20043;-77
2022/08/28 01:48:28;;;;;;;;;;;;;;;15.18;100.00;101566.00;5052085;28;20107;-77
2022/08/28 01:51:07;;;;;;;17.58;4.95;;;;;;;15.22;100.00;101558.31;5072508;28;19943;-77
2022/08/28 01:53:34;;;;;;;19.02;5.05;;;;;;;15.22;100.00;101563.84;5068515;28;20033;-78
2022/08/28 01:56:09;;;;;;;15.48;4.80;;;;;;;15.18;100.00;101563.25;5063720;28;20461;-79
2022/08/28 01:58:40;;;;;;;20.20;5.55;;;;;;;15.24;100.00;101567.31;5068424;28;20400;-77
2022/08/28 02:01:19;;;;;;;15.27;5.82;;;;;;;15.22;100.00;101566.59;5083212;28;20048;-77
2022/08/28 02:03:47;;;;;;;29.92;6.07;;;;;;;15.19;100.00;101566.88;5083726;28;20384;-77
2022/08/28 02:06:16;;;;;;;20.55;5.97;;;;;;;15.14;100.00;101572.78;5072059;28;20036;-78
2022/08/28 02:08:42;;;;;;;18.73;5.32;;;;;;;15.18;100.00;101565.09;5058393;28;20048;-78
2022/08/28 02:11:16;;;;;;;26.85;6.63;;;;;;;15.22;100.00;101575.75;5049374;28;20116;-78
2022/08/28 02:13:42;;;;;;;23.00;6.30;;;;;;;15.11;100.00;101566.66;5040664;28;20440;-77
2022/08/28 02:16:13;;;;;;;21.00;5.38;;;;;;;15.15;100.00;101573.63;5065643;28;20097;-77
2022/08/28 02:18:42;;;;;;;26.25;5.78;;;;;;;15.05;100.00;101574.47;5046917;28;20117;-77
2022/08/28 02:21:09;;;;;;;21.40;5.90;;;;;;;15.13;100.00;101586.69;5067565;28;20024;-77
2022/08/28 02:23:38;;;;;;;27.23;6.40;;;;;;;15.14;100.00;101575.53;5070974;28;20054;-79
2022/08/28 02:26:11;;;;;;;23.05;6.07;;;;;;;15.18;100.00;101578.91;5058895;28;20488;-78
2022/08/28 02:28:41;;;;;;;22.65;6.05;;;;;;;15.17;100.00;101583.53;5053686;28;20025;-78
2022/08/28 02:31:12;;;;;;;26.00;6.00;;;;;;;15.18;100.00;101581.66;5063264;28;20384;-79
2022/08/28 02:33:40;;;;;;;19.45;6.20;;;;;;;15.11;100.00;101583.22;5062567;28;20033;-76
2022/08/28 02:36:08;;;;;;;19.27;5.35;;;;;;;15.13;100.00;101575.66;5064774;28;20076;-77
2022/08/28 02:38:35;;;;;;;19.73;5.97;;;;;;;15.20;100.00;101586.03;5073727;28;20029;-78
2022/08/28 02:41:05;;;;;;;20.65;6.63;;;;;;;15.06;100.00;101583.59;5048083;28;20037;-78
2022/08/28 02:43:33;;;;;;;13.77;5.30;;;;;;;14.97;100.00;101579.75;5055311;28;20082;-78
2022/08/28 02:46:01;;;;;;;16.90;5.68;;;;;;;14.97;100.00;101581.63;5068035;28;20128;-77
2022/08/28 02:48:39;;;;;;;19.52;5.38;;;;;;;14.96;100.00;101580.75;5057163;28;20021;-78
2022/08/28 02:51:09;;;;;;;16.38;5.63;;;;;;;14.98;100.00;101581.50;5058676;28;20048;-77
2022/08/28 02:53:35;;;;;;;22.73;5.95;;;;;;;14.96;100.00;101585.41;5070403;28;20036;-78
2022/08/28 02:56:06;;;;;;;21.70;5.85;;;;;;;14.98;100.00;101584.25;5073011;28;20054;-77
2022/08/28 02:58:34;;;;;;;26.05;5.90;;;;;;;14.97;100.00;101582.53;5073962;28;20100;-77
2022/08/28 03:01:05;;;;;;;23.05;6.68;;;;;;;14.95;100.00;101586.41;5053811;28;20507;-77
2022/08/28 03:03:32;;;;;;;25.48;5.88;;;;;;;14.94;100.00;101584.66;5070930;28;20476;-76
2022/08/28 03:06:00;;;;;;;31.23;5.85;;;;;;;14.89;100.00;101585.06;5058117;28;20115;-77
2022/08/28 03:08:30;;;;;;;25.13;6.53;;;;;;;14.88;100.00;101584.16;5050592;28;20121;-78
2022/08/28 03:10:55;;;;;;;25.30;6.00;;;;;;;14.82;100.00;101579.22;5067853;28;20396;-77
2022/08/28 03:13:31;;;;;;;26.13;6.03;;;;;;;14.87;100.00;101589.81;5066096;28;21633;-77
2022/08/28 03:15:59;;;;;;;26.98;6.03;;;;;;;14.74;100.00;101587.25;5066131;28;20412;-77
2022/08/28 03:18:31;;;;;;;24.25;6.07;;;;;;;14.84;100.00;101593.72;5032826;28;20041;-76
2022/08/28 03:20:59;;;;;;;23.13;6.50;;;;;;;14.72;100.00;101591.13;5058215;28;20349;-77
2022/08/28 03:23:26;;;;;;;24.90;7.47;;;;;;;14.81;100.00;101598.63;5063413;28;20060;-78
2022/08/28 03:26:07;;;;;;;23.92;6.22;;;;;;;14.76;100.00;101590.75;5066555;28;20036;-77
2022/08/28 03:28:57;;;;;;;26.90;6.75;;;;;;;14.67;100.00;101594.28;5039772;28;20020;-77
2022/08/28 03:31:28;;;;;;;27.05;7.30;;;;;;;14.62;100.00;101599.31;5057155;28;20033;-77
2022/08/28 03:33:54;;;;;;;17.65;6.50;;;;;;;14.70;100.00;101592.13;5047721;28;20048;-77
2022/08/28 03:36:26;;;;;;;30.02;6.97;;;;;;;14.63;100.00;101596.44;5057590;28;20049;-77
2022/08/28 03:38:57;;;;;;;22.70;6.75;;;;;;;14.63;100.00;101599.19;5066424;28;20040;-78
2022/08/28 03:41:30;;;;;;;17.65;6.88;;;;;;;14.66;100.00;101606.31;5067993;28;20071;-78
2022/08/28 03:44:03;;;;;;;26.90;6.28;;;;;;;14.60;100.00;101606.84;5041617;28;20029;-78
2022/08/28 03:46:37;;;;;;;23.90;6.60;;;;;;;14.65;100.00;101610.94;5060553;28;20499;-78
2022/08/28 03:49:09;;;;;;;24.45;7.30;;;;;;;14.67;100.00;101613.56;5047382;28;20032;-78
2022/08/28 03:51:35;;;;;;;24.65;7.78;;;;;;;14.56;100.00;101613.56;5029751;28;20101;-79
2022/08/28 03:54:02;;;;;;;30.45;7.10;;;;;;;14.58;100.00;101611.56;5068202;28;20534;-78
2022/08/28 03:56:33;;;;;;;23.00;6.57;;;;;;;14.67;100.00;101616.31;5075292;28;20067;-78
2022/08/28 03:59:04;;;;;;;24.80;6.80;;;;;;;14.62;100.00;101604.81;5061866;28;20412;-77
2022/08/28 04:01:32;;;;;;;23.63;6.45;;;;;;;14.59;100.00;101602.28;5063570;28;20040;-77
2022/08/28 04:04:02;;;;;;;24.40;7.90;;;;;;;14.61;100.00;101609.47;5056081;28;20052;-77
2022/08/28 04:06:34;;;;;;;23.83;7.07;;;;;;;14.58;100.00;101600.56;5039680;28;20108;-77
2022/08/28 04:09:01;;;;;;;32.70;7.10;;;;;;;14.58;100.00;101611.56;5070509;28;20115;-78
2022/08/28 04:11:27;;;;;;;24.90;7.30;;;;;;;14.61;100.00;101616.84;5065881;28;20360;-77
2022/08/28 04:13:59;;;;;;;25.13;6.93;;;;;;;14.56;100.00;101610.81;5070370;28;20052;-77
2022/08/28 04:16:25;;;;;;;34.20;7.45;;;;;;;14.55;100.00;101618.22;5058245;28;20037;-78
2022/08/28 04:18:50;;;;;;;27.73;6.93;;;;;;;14.50;100.00;101618.59;5030893;28;20395;-78
2022/08/28 04:21:20;;;;;;;22.48;5.97;;;;;;;14.48;100.00;101620.59;5055567;28;20072;-78
2022/08/28 04:23:55;;;;;;;32.15;7.53;;;;;;;14.51;100.00;101619.47;5062580;28;20029;-78
2022/08/28 04:26:26;;;;;;;25.70;6.70;;;;;;;14.52;100.00;101623.97;5047790;28;20033;-77
2022/08/28 04:28:57;;;;;;;30.15;8.07;;;;;;;14.51;100.00;101630.47;5067752;28;20044;-78
2022/08/28 04:31:29;;;;;;;27.20;7.05;;;;;;;14.45;100.00;101620.00;5063631;28;20056;-77
2022/08/28 04:33:54;;;;;;;37.83;7.13;;;;;;;14.44;100.00;101623.75;5063364;28;20076;-77
2022/08/28 04:36:25;;;;;;;29.48;6.78;;;;;;;14.52;100.00;101629.47;5028268;28;20057;-78
2022/08/28 04:38:58;;;;;;;22.10;7.57;;;;;;;14.39;100.00;101632.38;5060862;28;20403;-77
2022/08/28 04:41:24;;;;;;;23.52;6.88;;;;;;;14.42;100.00;101625.75;5066243;28;20104;-76
2022/08/28 04:43:52;;;;;;;26.98;7.40;;;;;;;14.34;100.00;101632.75;5055444;28;20029;-77
2022/08/28 04:46:18;;;;;;;32.33;7.68;;;;;;;14.43;100.00;101633.00;5058023;28;20033;-78
2022/08/28 04:48:49;;;;;;;30.48;7.15;;;;;;;14.34;100.00;101641.03;5057820;28;20385;-77
2022/08/28 04:51:15;;;;;;;26.75;7.30;;;;;;;14.31;100.00;101634.91;5055046;28;20044;-78
2022/08/28 04:53:42;;;;;;;31.98;7.43;;;;;;;14.20;100.00;101632.16;5054600;28;20037;-78
2022/08/28 04:56:11;;;;;;;28.92;7.25;;;;;;;14.16;100.00;101626.88;5054735;28;20107;-76
2022/08/28 04:58:43;;;;;;;27.88;7.03;;;;;;;14.15;100.00;101629.78;5071440;28;20485;-77
2022/08/28 05:01:18;;;;;;;29.83;7.53;;;;;;;14.13;100.00;101624.41;5059527;28;20088;-76
2022/08/28 05:03:47;;;;;;;21.05;6.75;;;;;;;14.06;100.00;101634.16;5053986;28;20033;-76
2022/08/28 05:06:15;;;;;;;28.02;6.95;;;;;;;13.99;100.00;101641.19;5070169;28;20056;-77
2022/08/28 05:08:44;;;;;;;30.77;7.53;;;;;;;14.03;100.00;101636.28;5064530;28;20024;-77
2022/08/28 05:11:20;;;;;;;35.40;9.23;;;;;;;14.15;100.00;101649.94;5053907;28;20400;-76
2022/08/28 05:13:49;;;;;;;16.15;6.47;;;;;;;14.07;100.00;101648.78;5059174;28;20033;-75
2022/08/28 05:16:17;;;;;;;33.50;8.35;;;;;;;14.04;100.00;101640.81;5052950;28;20029;-76
2022/08/28 05:18:49;;;;;;;33.80;9.07;;;;;;;14.07;100.00;101651.53;5060938;28;20476;-76
2022/08/28 05:21:20;;;;;;;21.02;7.38;;;;;;;14.07;100.00;101649.69;5039055;28;20033;-75
2022/08/28 05:23:52;;;;;;;29.65;8.35;;;;;;;14.10;100.00;101663.22;5059801;28;20047;-75
2022/08/28 05:26:21;;;;;;;26.13;7.50;;;;;;;14.10;100.00;101654.06;5067667;28;20028;-76
2022/08/28 05:28:53;;;;;;;32.60;7.97;;;;;;;14.12;100.00;101666.72;5040859;28;20042;-76
2022/08/28 05:31:30;;;;;;;27.27;8.18;;;;;;;14.12;100.00;101672.22;5057626;28;20063;-77
2022/08/28 05:33:59;;;;;;;28.25;8.30;;;;;;;14.14;100.00;101667.47;5053597;28;20485;-77
2022/08/28 05:36:27;;;;;;;32.17;8.50;;;;;;;14.18;100.00;101667.22;5057308;28;20064;-75
2022/08/28 05:39:04;;;;;;;25.85;8.32;;;;;;;14.23;100.00;101676.88;5058526;28;20067;-75
2022/08/28 05:41:30;;;;;;;37.90;8.25;;;;;;;14.31;100.00;101670.72;5070770;28;20028;-75
2022/08/28 05:44:07;;;;;;;27.83;8.38;;;;;;;14.37;100.00;101667.47;5052445;28;20036;-76
2022/08/28 05:46:35;;;;;;;32.13;8.73;;;;;;;14.46;100.00;101669.47;5061568;28;20388;-75
2022/08/28 05:49:12;;;;;;;30.88;8.10;;;;;;;14.57;100.00;101670.44;5050189;28;20029;-74
2022/08/28 05:51:48;;;;;;;34.67;9.48;;;;;;;14.74;100.00;101681.00;5060238;28;20479;-76
2022/08/28 05:54:18;;;;;;;27.00;8.63;;;;;;;14.97;100.00;101675.38;5054737;28;20025;-76
2022/08/28 05:56:44;;;;;;;25.42;7.90;;;;;;;15.11;100.00;101679.75;5067028;28;20498;-75
2022/08/28 05:59:12;;;;;;;32.28;8.77;;;;;;;15.21;100.00;101678.81;5062431;28;20067;-75
2022/08/28 06:01:46;;;;;;;53.05;8.60;;;;;;;15.53;100.00;101682.59;5050965;28;20032;-76
2022/08/28 06:04:24;;;;;;;30.15;7.47;;;;;;;15.70;100.00;101683.88;5062408;28;20119;-75
2022/08/28 06:06:51;;;;;;;36.63;7.53;;;;;;;15.76;100.00;101684.22;5066865;28;20032;-76
2022/08/28 06:09:22;;;;;;;30.88;7.97;;;;;;;15.67;100.00;101689.66;5074799;28;20028;-77
2022/08/28 06:12:01;;;;;;;28.83;8.35;;;;;;;15.59;100.00;101684.78;5067150;28;20353;-76
2022/08/28 06:14:30;;;;;;;25.48;7.93;;;;;;;15.67;100.00;101690.50;5068004;28;20115;-76
2022/08/28 06:17:01;;;;;;;29.60;8.93;;;;;;;15.56;100.00;101685.94;5059275;28;20041;-76
2022/08/28 06:19:29;;;;;;;33.03;8.20;;;;;;;15.57;100.00;101689.56;5067367;28;20035;-77
2022/08/28 06:21:57;;;;;;;35.45;8.90;;;;;;;15.57;100.00;101679.41;5069030;28;20058;-77
2022/08/28 06:24:30;;;;;;;25.08;8.13;;;;;;;15.47;100.00;101683.97;5068780;28;20044;-77
2022/08/28 06:26:59;;;;;;;29.40;8.43;;;;;;;15.66;100.00;101690.66;5053307;28;20024;-77
2022/08/28 06:29:26;;;;;;;37.03;8.75;;;;;;;15.64;100.00;101693.53;5068280;28;20047;-76
2022/08/28 06:32:03;;;;;;;35.30;8.70;;;;;;;15.75;100.00;101687.97;5070381;28;20032;-76
2022/08/28 06:34:29;;;;;;;38.30;9.05;;;;;;;15.82;100.00;101699.38;5064209;28;20390;-75
2022/08/28 06:37:01;;;;;;;;;;;;;;;15.95;100.00;101694.53;5067430;28;20392;-76
2022/08/28 06:39:27;;;;;;;30.52;9.23;;;;;;;16.37;100.00;101701.00;5069135;28;19927;-76
2022/08/28 06:41:55;;;;;;;33.95;8.45;;;;;;;16.30;100.00;101698.78;5056842;28;20036;-76
2022/08/28 06:44:21;;;;;;;46.78;9.20;;;;;;;16.46;100.00;101700.16;5068664;28;20036;-76
2022/08/28 06:46:53;;;;;;;33.97;9.23;;;;;;;16.51;100.00;101706.13;5054290;28;20044;-77
2022/08/28 06:49:20;;;;;;;33.58;9.18;;;;;;;16.81;100.00;101715.44;5049657;28;20036;-77
2022/08/28 06:51:54;;;;;;;;;;;;;;;16.99;100.00;101716.53;5061142;28;20048;-78
2022/08/28 06:54:21;;;;;;;34.35;7.18;;;;;;;16.95;100.00;101711.41;5061189;28;19920;-78
2022/08/28 06:56:55;;;;;;;34.17;7.38;;;;;;;17.19;100.00;101714.66;5056223;28;20068;-77
2022/08/28 06:59:23;;;;;;;23.33;7.32;;;;;;;17.63;100.00;101726.19;5049068;28;20086;-77
2022/08/28 07:01:54;;;;;;;36.75;7.75;;;;;;;17.84;100.00;101730.69;5054226;28;20039;-78
2022/08/28 07:04:22;;;;;;;24.92;6.57;;;;;;;17.61;100.00;101710.72;5069983;28;20105;-77
2022/08/28 07:06:51;;;;;;;30.88;7.32;;;;;;;17.81;100.00;101714.38;5053059;28;20041;-78
2022/08/28 07:09:19;;;;;;;37.47;6.88;;;;;;;18.06;100.00;101714.78;5034471;28;20029;-78
2022/08/28 07:11:45;;;;;;;27.30;6.07;;;;;;;18.39;100.00;101713.38;5051919;28;20499;-78
2022/08/28 07:14:14;;;;;;;35.65;6.28;;;;;;;18.50;100.00;101709.53;5051114;28;20170;-78
2022/08/28 07:16:45;;;;;;;20.50;5.25;;;;;;;18.85;100.00;101717.13;5064073;28;20068;-77
2022/08/28 07:19:14;;;;;;;31.75;4.85;;;;;;;18.92;100.00;101717.38;5066192;28;20088;-77
2022/08/28 07:21:44;;;;;;;27.77;4.95;;;;;;;19.21;100.00;101719.97;5064820;28;20067;-77
2022/08/28 07:24:17;;;;;;;30.83;4.68;;;;;;;19.72;100.00;101709.16;5060901;28;20118;-76
2022/08/28 07:26:46;;;;;;;28.38;4.88;;;;;;;19.87;100.00;101728.09;5065608;28;20034;-77
2022/08/28 07:29:13;;;;;;;27.15;5.38;;;;;;;19.74;100.00;101717.34;5053273;28;20036;-78
2022/08/28 07:31:45;;;;;;;26.10;4.43;;;;;;;20.32;100.00;101716.75;5041839;28;20110;-78
2022/08/28 07:34:19;;;;;;;30.95;5.10;;;;;;;20.44;100.00;101722.06;5049942;28;20044;-77
2022/08/28 07:36:45;;;;;;;22.38;4.28;;;;;;;20.82;100.00;101730.97;5060897;28;20037;-78
2022/08/28 07:39:14;;;;;;;18.40;3.67;;;;;;;20.57;100.00;101722.47;5066417;28;20083;-77
2022/08/28 07:41:46;;;;;;;25.27;3.75;;;;;;;20.45;100.00;101730.22;5068704;28;20055;-77
2022/08/28 07:47:02;;;;;;;26.95;3.72;;;;;;;20.74;100.00;101745.69;5060271;28;20044;-77
2022/08/28 07:49:32;;;;;;;20.87;3.53;;;;;;;20.95;100.00;101748.06;5049432;28;20025;-76
2022/08/28 07:52:03;;;;;;;18.10;3.30;;;;;;;20.68;100.00;101743.59;5071289;28;20032;-77
2022/08/28 07:54:30;;;;;;;28.90;3.47;;;;;;;21.29;100.00;101758.28;5069665;28;20032;-77
2022/08/28 07:57:06;;;;;;;19.83;3.45;;;;;;;21.17;100.00;101748.47;5069875;28;20033;-76
2022/08/28 07:59:39;;;;;;;21.80;3.55;;;;;;;21.20;100.00;101749.03;5062637;28;20484;-76
2022/08/28 08:02:10;;;;;;;23.27;3.42;;;;;;;20.83;100.00;101741.94;5072735;28;20113;-77
2022/08/28 08:04:35;;;;;;;19.80;2.58;;;;;;;21.49;100.00;101750.50;5056993;28;20033;-77
2022/08/28 08:07:02;;;;;;;17.13;3.30;;;;;;;22.17;95.91;101760.47;5045215;28;20472;-76
2022/08/28 08:09:28;;;;;;;16.88;3.22;;;;;;;21.68;97.92;101763.25;5054945;28;20480;-77
2022/08/28 08:12:04;;;;;;;17.05;2.88;;;;;;;21.90;97.12;101753.34;5056243;28;20198;-76
2022/08/28 08:14:41;;;;;;;21.00;3.10;;;;;;;21.93;95.58;101754.91;5063427;28;20433;-76
2022/08/28 08:17:09;;;;;;;18.92;2.75;;;;;;;21.82;95.45;101756.13;5068690;28;20043;-77
2022/08/28 08:19:35;;;;;;;18.33;3.53;;;;;;;21.35;98.28;101756.72;5067994;28;20029;-76
2022/08/28 08:22:01;;;;;;;16.35;2.53;;;;;;;21.66;96.52;101759.75;5058889;28;20510;-77
2022/08/28 08:24:29;;;;;;;18.45;2.53;;;;;;;20.56;99.30;101756.88;5063950;28;20040;-76
2022/08/28 08:27:01;;;;;;;18.73;2.72;;;;;;;20.70;100.00;101759.09;5053680;28;20042;-77
2022/08/28 08:29:34;;;;;;;13.32;3.22;;;;;;;21.48;95.25;101769.16;5058541;28;20025;-77
2022/08/28 08:32:08;;;;;;;12.90;2.63;;;;;;;22.08;92.36;101755.06;5069254;28;20035;-78
2022/08/28 08:34:37;;;;;;;12.80;4.35;;;;;;;21.47;95.62;101769.28;5059696;28;20439;-77
2022/08/28 08:37:12;;;;;;;20.73;2.80;;;;;;;21.53;96.13;101767.75;5068634;28;20052;-76
2022/08/28 08:39:42;;;;;;;18.23;3.40;;;;;;;21.00;98.38;101762.34;5060669;28;20037;-78
2022/08/28 08:42:26;;;;;;;14.32;2.83;;;;;;;20.99;97.39;101771.75;5057001;28;20041;-78
2022/08/28 08:44:55;;;;;;;12.82;2.20;;;;;;;21.99;91.87;101765.38;5062759;28;20043;-78
2022/08/28 08:47:46;;;;;;;20.20;2.42;;;;;;;22.33;89.29;101765.22;5066630;28;20242;-78
2022/08/28 08:50:19;;;;;;;16.77;2.30;;;;;;;22.63;89.06;101750.63;5061624;28;20032;-78
2022/08/28 08:53:12;;;;;;;12.70;2.40;;;;;;;22.23;90.75;101766.41;5061036;28;20041;-77
2022/08/28 08:55:51;;;;;;;12.75;2.15;;;;;;;21.54;90.66;101758.38;5057510;28;20021;-76
2022/08/28 08:58:30;;;;;;;12.38;2.33;;;;;;;20.95;96.81;101748.06;5046169;28;20036;-76
2022/08/28 09:01:20;;;;;;;15.35;2.25;;;;;;;21.82;94.96;101758.91;5082562;28;20110;-77
2022/08/28 09:03:54;;;;;;;10.23;2.05;;;;;;;22.47;87.76;101759.94;5082842;28;20043;-78
2022/08/28 09:06:50;;;;;;;7.78;2.33;;;;;;;22.92;83.20;101750.91;5063716;28;20040;-77
2022/08/28 09:09:39;;;;;;;16.83;2.75;;;;;;;22.19;89.38;101750.00;5072606;28;20139;-76
2022/08/28 09:12:15;;;;;;;13.48;1.90;;;;;;;22.29;88.60;101755.44;5065616;28;20485;-76
2022/08/28 09:15:09;;;;;;;14.02;2.17;;;;;;;21.27;93.16;101754.78;5064645;28;20044;-78
2022/08/28 09:17:43;;;;;;;8.30;1.83;;;;;;;21.97;86.98;101767.44;5058913;28;20072;-77
2022/08/28 09:20:13;;;;;;;20.60;2.28;;;;;;;21.42;90.08;101763.38;5058909;28;20040;-76
2022/08/28 09:22:48;;;;;;;12.88;1.90;;;;;;;22.18;86.19;101758.56;5068193;28;20025;-76
2022/08/28 09:25:49;;;;;;;12.82;1.83;;;;;;;22.34;86.63;101761.34;5053360;28;20115;-76
2022/08/28 09:28:27;;;;;;;9.43;1.73;;;;;;;22.87;84.10;101761.72;5061352;28;20044;-76
2022/08/28 09:31:13;;;;;;;11.55;1.67;;;;;;;23.55;81.54;101750.91;5064662;28;20421;-76
2022/08/28 09:33:45;;;;;;;8.65;1.45;;;;;;;23.83;75.13;101756.00;5065016;28;20098;-76
2022/08/28 09:36:29;;;;;;;12.23;1.67;;;;;;;23.60;73.96;101758.75;5068174;28;20514;-76
2022/08/28 09:39:26;;;;;;;13.18;2.35;;;;;;;23.44;72.98;101759.72;5066279;28;20305;-77
2022/08/28 09:45:21;;;;;;;5.38;1.40;;;;;;;23.03;72.59;101758.00;5016690;28;20124;-77
2022/08/28 09:47:53;;;;;;;8.55;1.90;;;;;;;24.13;68.40;101753.28;5064332;28;20036;-78
2022/08/28 09:50:41;;;;;;;7.93;1.70;;;;;;;23.92;69.19;101756.78;5069885;28;20029;-77
2022/08/28 09:53:10;;;;;;;8.68;1.58;;;;;;;24.05;66.46;101765.41;5068649;28;20041;-77
2022/08/28 09:55:47;;;;;;;9.88;1.60;;;;;;;23.79;66.88;101754.56;5060951;28;20036;-77
2022/08/28 09:58:14;;;;;;;8.90;1.55;;;;;;;24.32;65.33;101766.75;5052948;28;20028;-77
2022/08/28 10:00:51;;;;;;;9.57;1.77;;;;;;;24.36;65.05;101758.81;5050360;28;20278;-76
2022/08/28 10:03:52;;;;;;;10.00;2.10;;;;;;;24.53;65.63;101763.19;5058313;28;20029;-76
2022/08/28 10:06:22;;;;;;;6.13;1.30;;;;;;;24.26;65.09;101759.09;5061831;28;20044;-76
2022/08/28 10:09:09;;;;;;;8.70;1.50;;;;;;;24.59;63.51;101761.56;5070554;28;20032;-77
2022/08/28 10:12:02;;;;;;;9.98;1.92;;;;;;;24.39;62.48;101756.50;5047965;28;20036;-76
2022/08/28 10:14:38;;;;;;;15.38;1.77;;;;;;;24.19;64.66;101756.19;5085786;28;20492;-77
2022/08/28 10:17:30;;;;;;;7.88;1.33;;;;;;;24.56;62.71;101762.84;5069805;28;20048;-78
2022/08/28 10:20:21;;;;;;;5.45;1.30;;;;;;;24.90;59.50;101760.53;5073970;28;20032;-77
2022/08/28 10:23:03;;;;;;;9.75;1.88;;;;;;;24.30;64.54;101760.47;5072190;28;20057;-78
2022/08/28 10:25:50;;;;;;;7.57;1.48;;;;;;;24.33;63.12;101762.00;5050627;28;20384;-77
2022/08/28 10:28:50;;;;;;;9.45;1.55;;;;;;;23.71;65.25;101760.22;5059697;28;20037;-76
2022/08/28 10:31:35;;;;;;;10.43;1.58;;;;;;;23.49;66.23;101762.84;5064309;28;20066;-77
2022/08/28 10:34:10;;;;;;;6.40;1.40;;;;;;;23.24;67.63;101756.53;5076591;28;20071;-77
2022/08/28 10:36:38;;;;;;;8.85;1.48;;;;;;;22.72;69.37;101750.44;5059902;28;20190;-78
2022/08/28 10:39:41;;;;;;;10.68;1.90;;;;;;;22.24;71.35;101752.28;5059257;28;20123;-77
2022/08/28 10:42:23;;;;;;;8.50;1.40;;;;;;;22.86;69.81;101745.16;5075993;28;20032;-77
2022/08/28 10:45:10;;;;;;;9.23;1.40;;;;;;;23.58;66.06;101753.34;5073223;28;20103;-77
2022/08/28 10:47:43;;;;;;;8.05;1.58;;;;;;;23.07;65.90;101758.53;5059437;28;20036;-77
2022/08/28 10:50:17;;;;;;;7.70;1.85;;;;;;;22.58;68.94;101754.00;5067409;28;20039;-77
2022/08/28 10:53:01;;;;;;;9.35;1.42;;;;;;;22.36;70.34;101750.88;5070544;28;20033;-77
2022/08/28 10:55:36;;;;;;;9.75;1.60;;;;;;;22.29;70.14;101762.94;5043823;28;20044;-76
2022/08/28 10:58:10;;;;;;;15.63;1.73;;;;;;;22.60;71.60;101757.47;5057873;28;20472;-77
2022/08/28 11:00:45;;;;;;;;;;;;;;;22.97;68.65;101757.84;5069598;28;20431;-77
2022/08/28 11:03:17;;;;;;;5.97;1.17;;;;;;;23.58;65.89;101753.34;5049642;28;19920;-78
2022/08/28 11:05:53;;;;;;;13.63;1.67;;;;;;;23.17;66.31;101759.19;5072166;28;20047;-77
2022/08/28 11:08:26;;;;;;;10.23;1.38;;;;;;;22.70;67.51;101760.91;5055292;28;20044;-76
2022/08/28 11:10:54;;;;;;;7.60;1.45;;;;;;;23.25;67.29;101766.63;5056617;28;20112;-77
2022/08/28 11:13:43;;;;;;;7.38;1.50;;;;;;;23.82;63.72;101760.69;5054595;28;20055;-77
2022/08/28 11:16:17;;;;;;;10.70;1.67;;;;;;;24.08;64.95;101758.56;5055481;28;20114;-77
2022/08/28 11:19:04;;;;;;;8.48;1.27;;;;;;;23.29;65.67;101751.25;5063297;28;20112;-78
2022/08/28 11:21:50;;;;;;;6.63;1.20;;;;;;;22.92;67.44;101745.31;5055317;28;20094;-79
2022/08/28 11:24:34;;;;;;;10.38;1.30;;;;;;;23.15;65.77;101755.69;5044850;28;20033;-77
2022/08/28 11:27:23;;;;;;;7.28;1.10;;;;;;;22.92;66.70;101750.91;5054500;28;20036;-77
2022/08/28 11:30:07;;;;;;;3.30;1.13;;;;;;;22.51;68.76;101755.72;5044166;28;20036;-77
2022/08/28 11:32:49;;;;;;;9.85;1.48;;;;;;;22.51;69.08;101761.31;5064392;28;20028;-78
2022/08/28 11:35:45;;;;;;;5.30;1.30;;;;;;;22.39;70.03;101761.69;5066110;28;20053;-78
2022/08/28 11:38:31;;;;;;;7.88;1.15;;;;;;;22.74;68.54;101753.03;5066398;28;20039;-77
2022/08/28 11:41:09;;;;;;;6.55;1.20;;;;;;;23.09;66.49;101762.03;5040819;28;20523;-77
2022/08/28 11:43:42;;;;;;;5.20;1.30;;;;;;;23.21;63.97;101757.75;5055482;28;20049;-77
2022/08/28 11:46:21;;;;;;;5.35;1.10;;;;;;;23.67;62.34;101754.16;5058678;28;20116;-77
2022/08/28 11:48:51;;;;;;;7.15;1.10;;;;;;;24.00;61.03;101751.13;5054395;28;20031;-77